Time;durP1;ratioP1;P1;durP2;ratioP2;P2;SDS_P1;SDS_P2;PMS_P1;PMS_P2;Temp;Humidity;BMP_temperature;BMP_pressure;BME280_temperature;BME280_humidity;BME280_pressure;Samples;Min_cycle;Max_cycle;Signal;HPM_P1;HPM_P2
2023/03/01 00:01:36;;;;;;;12.60;8.47;;;4.10;99.90;;;;;;7386480;19;20157;-73
2023/03/01 00:04:02;;;;;;;12.37;8.17;;;4.00;99.90;;;;;;7386699;19;20643;-73
2023/03/01 00:06:28;;;;;;;13.67;7.97;;;4.00;99.90;;;;;;7391213;19;20154;-73
2023/03/01 00:08:54;;;;;;;14.60;8.73;;;4.00;99.90;;;;;;7388132;19;20137;-75
2023/03/01 00:11:25;;;;;;;14.30;8.17;;;3.90;99.90;;;;;;7387976;19;20733;-72
2023/03/01 00:13:53;;;;;;;13.67;8.10;;;3.90;99.90;;;;;;7387337;19;20162;-73
2023/03/01 00:16:31;;;;;;;14.60;7.80;;;4.00;99.90;;;;;;7386407;19;20135;-73
2023/03/01 00:18:57;;;;;;;12.27;8.27;;;3.90;99.90;;;;;;7386251;19;20146;-73
2023/03/01 00:21:24;;;;;;;12.93;8.53;;;3.90;99.90;;;;;;7385089;19;20196;-73
2023/03/01 00:23:57;;;;;;;12.87;7.93;;;4.00;99.90;;;;;;7385859;19;20153;-73
2023/03/01 00:26:24;;;;;;;14.17;8.50;;;3.80;99.90;;;;;;7386467;19;20150;-74
2023/03/01 00:28:51;;;;;;;13.00;8.90;;;3.80;99.90;;;;;;7388490;19;20151;-73
2023/03/01 00:31:19;;;;;;;15.57;9.33;;;3.60;99.90;;;;;;7387811;19;20138;-74
2023/03/01 00:33:45;;;;;;;13.77;8.20;;;3.40;99.90;;;;;;7384964;19;20169;-74
2023/03/01 00:36:14;;;;;;;13.17;8.20;;;3.50;99.90;;;;;;7385456;19;20225;-74
2023/03/01 00:38:44;;;;;;;12.73;7.70;;;3.40;99.90;;;;;;7385519;19;20865;-74
2023/03/01 00:41:12;;;;;;;13.23;8.30;;;3.50;99.90;;;;;;7385862;19;20142;-74
2023/03/01 00:43:38;;;;;;;13.33;8.27;;;3.40;99.90;;;;;;7387087;19;20137;-73
2023/03/01 00:46:08;;;;;;;13.60;8.37;;;3.40;99.90;;;;;;7385059;19;20243;-74
2023/03/01 00:48:34;;;;;;;12.73;8.30;;;3.40;99.90;;;;;;7386536;19;20142;-74
2023/03/01 00:51:10;;;;;;;13.70;8.37;;;3.40;99.90;;;;;;7384546;19;20176;-75
2023/03/01 00:53:36;;;;;;;11.97;7.83;;;3.40;99.90;;;;;;7388121;19;20556;-74
2023/03/01 00:56:07;;;;;;;13.53;8.23;;;3.50;99.90;;;;;;7383155;19;20138;-74
2023/03/01 00:58:33;;;;;;;13.57;7.63;;;3.30;99.90;;;;;;7385825;19;20151;-75
2023/03/01 01:00:59;;;;;;;13.27;7.73;;;3.10;99.90;;;;;;7384855;19;20437;-74
2023/03/01 01:03:25;;;;;;;15.00;8.27;;;3.20;99.90;;;;;;7385299;19;20186;-74
2023/03/01 01:05:52;;;;;;;15.77;8.57;;;3.20;99.90;;;;;;7386581;19;20143;-74
2023/03/01 01:08:19;;;;;;;13.00;7.33;;;3.20;99.90;;;;;;7385915;19;20146;-74
2023/03/01 01:10:46;;;;;;;12.43;7.90;;;3.10;99.90;;;;;;7386084;19;20150;-73
2023/03/01 01:13:12;;;;;;;15.60;8.27;;;3.40;99.90;;;;;;7385404;19;20127;-74
2023/03/01 01:15:38;;;;;;;11.87;7.90;;;3.40;99.90;;;;;;7386611;19;20135;-73
2023/03/01 01:18:05;;;;;;;12.57;8.20;;;3.50;99.90;;;;;;7385865;19;20130;-74
2023/03/01 01:20:30;;;;;;;11.93;7.80;;;3.60;99.90;;;;;;7386110;19;20159;-74
2023/03/01 01:22:56;;;;;;;14.53;8.10;;;3.60;99.90;;;;;;7382356;19;20421;-72
2023/03/01 01:25:24;;;;;;;10.97;7.73;;;3.70;99.90;;;;;;7391024;19;20135;-73
2023/03/01 01:27:51;;;;;;;12.67;7.77;;;3.60;99.90;;;;;;7393876;19;20535;-74
2023/03/01 01:30:17;;;;;;;14.33;8.37;;;3.70;99.90;;;;;;7393553;19;20141;-75
2023/03/01 01:32:43;;;;;;;12.67;8.17;;;3.80;99.90;;;;;;7392122;19;20130;-74
2023/03/01 01:35:08;;;;;;;15.03;8.63;;;3.80;99.90;;;;;;7389751;19;20166;-75
2023/03/01 01:37:34;;;;;;;13.87;8.10;;;3.90;99.90;;;;;;7390276;19;20143;-74
2023/03/01 01:40:04;;;;;;;12.50;8.00;;;3.60;99.90;;;;;;7390500;19;20544;-74
2023/03/01 01:42:31;;;;;;;12.63;7.90;;;3.60;99.90;;;;;;7391620;19;20154;-73
2023/03/01 01:45:28;;;;;;;13.00;8.47;;;3.60;99.90;;;;;;7390326;19;20838;-74
2023/03/01 01:47:57;;;;;;;13.40;8.10;;;3.50;99.90;;;;;;7390888;19;20143;-73
2023/03/01 01:50:23;;;;;;;12.47;8.67;;;3.40;99.90;;;;;;7392531;19;20222;-74
2023/03/01 01:52:51;;;;;;;13.97;8.50;;;3.50;99.90;;;;;;7388769;19;20131;-73
2023/03/01 01:55:27;;;;;;;12.53;8.27;;;3.50;99.90;;;;;;7391021;19;20155;-74
2023/03/01 01:58:01;;;;;;;12.57;8.13;;;3.40;99.90;;;;;;7389271;19;20167;-73
2023/03/01 02:00:29;;;;;;;13.13;8.77;;;3.50;99.90;;;;;;7390839;19;20145;-77
2023/03/01 02:02:59;;;;;;;12.33;7.73;;;3.50;99.90;;;;;;7392256;19;20734;-76
2023/03/01 02:05:50;;;;;;;12.07;8.83;;;3.20;99.90;;;;;;7392211;19;20172;-76
2023/03/01 02:08:19;;;;;;;14.83;8.33;;;3.40;99.90;;;;;;7389571;19;20166;-76
2023/03/01 02:10:46;;;;;;;13.60;7.90;;;3.50;99.90;;;;;;7392227;19;20615;-77
2023/03/01 02:13:12;;;;;;;13.20;8.07;;;3.50;99.90;;;;;;7390225;19;20308;-77
2023/03/01 02:15:40;;;;;;;14.60;9.17;;;3.60;99.90;;;;;;7391112;19;20505;-77
2023/03/01 02:18:07;;;;;;;12.20;7.90;;;3.70;99.90;;;;;;7388286;19;20643;-76
2023/03/01 02:20:43;;;;;;;15.93;9.23;;;3.60;99.90;;;;;;7392448;19;20254;-76
2023/03/01 02:23:09;;;;;;;14.00;9.00;;;3.70;99.90;;;;;;7386723;19;20154;-76
2023/03/01 02:25:56;;;;;;;14.70;8.60;;;3.60;99.90;;;;;;7390483;19;20162;-76
2023/03/01 02:28:31;;;;;;;15.83;8.43;;;3.60;99.90;;;;;;7391377;19;20138;-76
2023/03/01 02:33:42;;;;;;;15.00;9.37;;;3.70;99.90;;;;;;7389833;19;20642;-76
2023/03/01 02:36:13;;;;;;;14.67;9.13;;;3.90;99.90;;;;;;7389540;19;20916;-76
2023/03/01 02:38:41;;;;;;;15.53;8.80;;;3.90;99.90;;;;;;7389864;19;20178;-76
2023/03/01 02:41:10;;;;;;;13.23;8.57;;;3.70;99.90;;;;;;7391027;19;20210;-77
2023/03/01 02:43:36;;;;;;;16.00;9.60;;;3.40;99.90;;;;;;7391193;19;20173;-76
2023/03/01 02:46:13;;;;;;;15.43;9.00;;;3.50;99.90;;;;;;7390981;19;20148;-76
2023/03/01 02:48:48;;;;;;;14.03;8.57;;;3.70;99.90;;;;;;7388932;19;20138;-77
2023/03/01 02:51:32;;;;;;;13.93;8.33;;;3.90;99.90;;;;;;7389473;19;20499;-77
2023/03/01 02:54:22;;;;;;;15.07;9.37;;;3.80;99.90;;;;;;7390012;19;20248;-77
2023/03/01 02:56:49;;;;;;;14.00;8.93;;;3.80;99.90;;;;;;7384687;19;20167;-77
2023/03/01 02:59:18;;;;;;;13.30;9.23;;;3.90;99.90;;;;;;7384709;19;20162;-77
2023/03/01 03:01:44;;;;;;;13.63;9.17;;;3.90;99.90;;;;;;7389285;19;20145;-77
2023/03/01 03:04:16;;;;;;;15.37;8.87;;;3.80;99.90;;;;;;7386861;19;20198;-76
2023/03/01 03:06:46;;;;;;;14.53;9.30;;;3.90;99.90;;;;;;7389832;19;20479;-77
2023/03/01 03:09:13;;;;;;;14.67;9.00;;;3.80;99.90;;;;;;7387432;19;20157;-76
2023/03/01 03:11:42;;;;;;;15.20;8.57;;;3.90;99.90;;;;;;7387624;19;20154;-76
2023/03/01 03:14:12;;;;;;;12.73;7.97;;;3.90;99.90;;;;;;7388979;19;20709;-76
2023/03/01 03:16:41;;;;;;;15.30;8.97;;;3.80;99.90;;;;;;7390300;19;20475;-75
2023/03/01 03:19:06;;;;;;;14.23;9.30;;;3.80;99.90;;;;;;7386655;19;20180;-76
2023/03/01 03:21:33;;;;;;;14.20;9.37;;;3.70;99.90;;;;;;7390293;19;20237;-77
2023/03/01 03:23:59;;;;;;;15.50;8.97;;;3.80;99.90;;;;;;7388811;19;22128;-76
2023/03/01 03:26:25;;;;;;;15.80;9.47;;;3.80;99.90;;;;;;7389342;19;20260;-76
2023/03/01 03:28:50;;;;;;;16.23;9.13;;;3.90;99.90;;;;;;7384890;19;20602;-77
2023/03/01 03:31:16;;;;;;;14.23;9.43;;;3.90;99.90;;;;;;7388414;19;20598;-76
2023/03/01 03:33:42;;;;;;;13.30;9.43;;;3.90;99.90;;;;;;7389398;19;20142;-76
2023/03/01 03:36:12;;;;;;;14.23;8.47;;;3.90;99.90;;;;;;7386281;19;20151;-75
2023/03/01 03:38:39;;;;;;;18.43;9.33;;;3.90;99.90;;;;;;7389111;19;20141;-76
2023/03/01 03:41:07;;;;;;;15.00;9.27;;;3.90;99.90;;;;;;7387601;19;20150;-76
2023/03/01 03:43:36;;;;;;;16.03;9.47;;;3.90;99.90;;;;;;7389775;19;20150;-76
2023/03/01 03:46:05;;;;;;;16.17;9.17;;;3.80;99.90;;;;;;7387108;19;20275;-77
2023/03/01 03:48:35;;;;;;;11.17;8.40;;;3.90;99.90;;;;;;7386954;19;20282;-74
2023/03/01 03:51:01;;;;;;;15.77;9.13;;;3.90;99.90;;;;;;7383078;19;20134;-77
2023/03/01 03:53:28;;;;;;;14.03;8.33;;;3.90;99.90;;;;;;7389479;19;20134;-77
2023/03/01 03:55:55;;;;;;;14.70;9.70;;;3.90;99.90;;;;;;7386885;19;20552;-76
2023/03/01 03:58:22;;;;;;;17.13;9.87;;;3.80;99.90;;;;;;7387929;19;20134;-76
2023/03/01 04:00:51;;;;;;;15.63;9.20;;;3.80;99.90;;;;;;7386476;19;20678;-76
2023/03/01 04:03:18;;;;;;;14.77;9.40;;;3.80;99.90;;;;;;7387976;19;20209;-76
2023/03/01 04:05:45;;;;;;;14.43;9.20;;;3.90;99.90;;;;;;7387669;19;20210;-75
2023/03/01 04:08:11;;;;;;;13.27;8.80;;;3.90;99.90;;;;;;7386936;19;20154;-76
2023/03/01 04:10:40;;;;;;;16.93;9.83;;;3.90;99.90;;;;;;7387417;19;20150;-76
2023/03/01 04:13:07;;;;;;;16.77;9.90;;;3.90;99.90;;;;;;7388104;19;20146;-76
2023/03/01 04:15:34;;;;;;;20.23;10.37;;;4.10;99.90;;;;;;7387872;19;20158;-77
2023/03/01 04:18:00;;;;;;;15.17;9.63;;;3.90;99.90;;;;;;7386543;19;20146;-75
2023/03/01 04:20:29;;;;;;;18.97;10.07;;;3.90;99.90;;;;;;7386246;19;20174;-76
2023/03/01 04:23:10;;;;;;;15.13;9.13;;;3.90;99.90;;;;;;7384579;19;20533;-76
2023/03/01 04:25:46;;;;;;;19.17;9.97;;;3.90;99.90;;;;;;7384213;19;20142;-76
2023/03/01 04:28:12;;;;;;;17.37;10.03;;;3.90;99.90;;;;;;7383592;19;20598;-76
2023/03/01 04:30:38;;;;;;;15.40;9.10;;;3.90;99.90;;;;;;7388059;19;20130;-78
2023/03/01 04:33:09;;;;;;;15.93;10.30;;;3.90;99.90;;;;;;7386206;19;20163;-76
2023/03/01 04:35:36;;;;;;;16.97;9.53;;;3.90;99.90;;;;;;7387479;19;20150;-77
2023/03/01 04:38:02;;;;;;;17.90;9.70;;;4.00;99.90;;;;;;7386856;19;20131;-77
2023/03/01 04:40:28;;;;;;;17.27;9.67;;;4.00;99.90;;;;;;7386573;19;20446;-76
2023/03/01 04:42:54;;;;;;;16.00;9.73;;;4.00;99.90;;;;;;7385326;19;20202;-76
2023/03/01 04:45:20;;;;;;;15.97;9.93;;;4.00;99.90;;;;;;7387238;19;20147;-76
2023/03/01 04:47:46;;;;;;;16.70;10.03;;;4.00;99.90;;;;;;7384635;19;20268;-76
2023/03/01 04:50:16;;;;;;;18.47;9.97;;;4.00;99.90;;;;;;7387681;19;20131;-76
2023/03/01 04:52:43;;;;;;;14.13;8.87;;;4.00;99.90;;;;;;7383974;19;20131;-77
2023/03/01 04:55:09;;;;;;;15.03;9.73;;;4.10;99.90;;;;;;7387306;19;20166;-76
2023/03/01 04:57:35;;;;;;;14.33;9.43;;;4.00;99.90;;;;;;7379262;19;20135;-76
2023/03/01 05:00:19;;;;;;;16.50;9.67;;;3.60;99.90;;;;;;7392216;19;20134;-76
2023/03/01 05:03:05;;;;;;;15.43;9.77;;;3.80;99.90;;;;;;7390318;19;20565;-76
2023/03/01 05:05:38;;;;;;;19.30;9.80;;;4.00;99.90;;;;;;7392281;19;20158;-77
2023/03/01 05:08:07;;;;;;;17.77;10.27;;;4.00;99.90;;;;;;7392770;19;20151;-76
2023/03/01 05:10:35;;;;;;;15.77;9.77;;;4.00;99.90;;;;;;7393317;19;20141;-77
2023/03/01 05:13:02;;;;;;;16.20;9.50;;;4.00;99.90;;;;;;7392410;19;20214;-77
2023/03/01 05:15:29;;;;;;;14.47;9.10;;;4.10;99.90;;;;;;7391741;19;20146;-76
2023/03/01 05:18:00;;;;;;;18.53;10.17;;;4.10;99.90;;;;;;7391090;19;20621;-77
2023/03/01 05:20:28;;;;;;;15.73;9.83;;;4.00;99.90;;;;;;7392305;19;20147;-76
2023/03/01 05:22:58;;;;;;;14.97;9.47;;;4.00;99.90;;;;;;7389174;19;20160;-76
2023/03/01 05:25:24;;;;;;;14.77;9.90;;;4.10;99.90;;;;;;7395568;19;20143;-77
2023/03/01 05:27:50;;;;;;;19.07;10.60;;;4.30;99.90;;;;;;7392702;19;20139;-76
2023/03/01 05:30:17;;;;;;;14.10;9.93;;;4.20;99.90;;;;;;7392713;19;20137;-77
2023/03/01 05:32:45;;;;;;;14.53;9.47;;;4.30;99.90;;;;;;7391623;19;20145;-76
2023/03/01 05:35:13;;;;;;;17.23;9.90;;;4.30;99.90;;;;;;7392183;19;20576;-76
2023/03/01 05:37:49;;;;;;;18.00;9.80;;;4.30;99.90;;;;;;7390693;19;20559;-76
2023/03/01 05:40:21;;;;;;;15.67;9.40;;;4.20;99.90;;;;;;7393268;19;20146;-77
2023/03/01 05:42:49;;;;;;;18.67;9.90;;;4.20;99.90;;;;;;7392609;19;20457;-76
2023/03/01 05:45:16;;;;;;;14.93;9.17;;;4.10;99.90;;;;;;7390529;19;20146;-77
2023/03/01 05:47:45;;;;;;;16.50;9.80;;;4.20;99.90;;;;;;7388463;19;20486;-76
2023/03/01 05:50:13;;;;;;;17.73;9.47;;;4.20;99.90;;;;;;7391316;19;20512;-76
2023/03/01 05:52:39;;;;;;;19.07;9.80;;;4.30;99.90;;;;;;7391675;19;20147;-76
2023/03/01 05:55:05;;;;;;;16.33;9.60;;;4.20;99.90;;;;;;7393349;19;20161;-76
2023/03/01 05:57:31;;;;;;;14.37;9.27;;;4.30;99.90;;;;;;7389594;19;20135;-77
2023/03/01 05:59:57;;;;;;;16.27;10.23;;;4.30;99.90;;;;;;7392815;19;20151;-76
2023/03/01 06:02:22;;;;;;;16.73;10.00;;;4.30;99.90;;;;;;7392179;19;20490;-76
2023/03/01 06:04:48;;;;;;;16.37;10.10;;;4.20;99.90;;;;;;7390031;19;20169;-76
2023/03/01 06:07:14;;;;;;;15.17;9.70;;;4.20;99.90;;;;;;7392835;19;20214;-75
2023/03/01 06:09:40;;;;;;;15.87;9.40;;;4.20;99.90;;;;;;7391591;19;20146;-76
2023/03/01 06:12:05;;;;;;;16.57;10.27;;;4.20;99.90;;;;;;7392052;19;20146;-77
2023/03/01 06:14:31;;;;;;;13.40;9.17;;;4.20;99.90;;;;;;7391590;19;20138;-77
2023/03/01 06:16:58;;;;;;;16.90;10.43;;;4.20;99.90;;;;;;7388991;19;20138;-76
2023/03/01 06:19:23;;;;;;;15.77;9.60;;;4.10;99.90;;;;;;7388679;19;20143;-77
2023/03/01 06:21:49;;;;;;;15.70;10.40;;;3.70;99.90;;;;;;7389283;19;20622;-76
2023/03/01 06:24:15;;;;;;;17.97;10.97;;;3.80;99.90;;;;;;7388866;19;20172;-77
2023/03/01 06:26:41;;;;;;;17.73;10.47;;;4.10;99.90;;;;;;7389471;19;20602;-77
2023/03/01 06:29:08;;;;;;;15.63;10.53;;;4.20;99.90;;;;;;7391678;19;21179;-77
2023/03/01 06:31:34;;;;;;;18.73;10.93;;;4.10;99.90;;;;;;7389498;19;20529;-77
2023/03/01 06:34:00;;;;;;;15.10;9.57;;;4.10;99.90;;;;;;7390767;19;20159;-76
2023/03/01 06:36:25;;;;;;;19.23;11.57;;;4.10;99.90;;;;;;7386050;19;20391;-76
2023/03/01 06:38:51;;;;;;;15.23;10.53;;;4.10;99.90;;;;;;7388832;19;20154;-75
2023/03/01 06:41:17;;;;;;;17.37;10.30;;;4.00;99.90;;;;;;7388549;19;20249;-75
2023/03/01 06:43:43;;;;;;;15.93;10.13;;;4.10;99.90;;;;;;7389310;19;20714;-75
2023/03/01 06:46:08;;;;;;;16.30;10.10;;;4.10;99.90;;;;;;7389729;19;20142;-75
2023/03/01 06:48:34;;;;;;;17.73;10.17;;;4.20;99.90;;;;;;7390514;19;20159;-82
2023/03/01 06:51:00;;;;;;;16.90;10.33;;;4.20;99.90;;;;;;7388885;19;20187;-75
2023/03/01 06:53:27;;;;;;;16.97;10.83;;;4.20;99.90;;;;;;7390709;19;20157;-76
2023/03/01 06:55:57;;;;;;;18.50;10.73;;;4.20;99.90;;;;;;7389653;19;20151;-76
2023/03/01 06:58:23;;;;;;;15.33;10.17;;;4.30;99.90;;;;;;7389054;19;20142;-75
2023/03/01 07:00:49;;;;;;;17.23;10.50;;;4.30;99.90;;;;;;7389278;19;20639;-74
2023/03/01 07:03:14;;;;;;;16.83;12.38;;;4.10;99.90;;;;;;7386384;19;20379;-75
2023/03/01 07:05:40;;;;;;;16.80;11.07;;;4.00;99.90;;;;;;7388822;19;20262;-76
2023/03/01 07:08:06;;;;;;;18.07;10.07;;;4.20;99.90;;;;;;7388831;19;20147;-75
2023/03/01 07:10:32;;;;;;;18.43;10.37;;;4.30;99.90;;;;;;7388933;19;20150;-74
2023/03/01 07:12:59;;;;;;;16.80;10.57;;;4.30;99.90;;;;;;7388718;19;20511;-75
2023/03/01 07:15:26;;;;;;;17.90;11.23;;;4.30;99.90;;;;;;7387967;19;20584;-75
2023/03/01 07:17:52;;;;;;;16.93;9.77;;;4.20;99.90;;;;;;7387331;19;20608;-75
2023/03/01 07:20:25;;;;;;;16.60;10.63;;;4.00;99.90;;;;;;7380842;19;20135;-75
2023/03/01 07:22:54;;;;;;;18.60;10.97;;;4.00;99.90;;;;;;7377801;19;20524;-75
2023/03/01 07:25:21;;;;;;;16.10;10.07;;;4.10;99.90;;;;;;7383258;19;20147;-76
2023/03/01 07:27:54;;;;;;;17.40;11.03;;;4.10;99.90;;;;;;7383786;19;20217;-76
2023/03/01 07:30:20;;;;;;;18.03;9.90;;;4.20;99.90;;;;;;7382193;19;20158;-77
2023/03/01 07:32:46;;;;;;;18.63;10.53;;;4.20;99.90;;;;;;7387530;19;20848;-77
2023/03/01 07:35:12;;;;;;;16.43;11.27;;;4.20;99.90;;;;;;7387020;19;20154;-76
2023/03/01 07:37:38;;;;;;;18.80;11.13;;;4.10;99.90;;;;;;7386948;19;20135;-76
2023/03/01 07:40:04;;;;;;;21.03;10.93;;;4.00;99.90;;;;;;7389932;19;20153;-75
2023/03/01 07:42:30;;;;;;;23.00;10.83;;;4.10;99.90;;;;;;7390386;19;20147;-75
2023/03/01 07:44:56;;;;;;;18.73;11.00;;;4.10;99.90;;;;;;7388130;19;20696;-76
2023/03/01 07:47:21;;;;;;;17.63;10.77;;;4.10;99.90;;;;;;7388749;19;20158;-76
2023/03/01 07:49:47;;;;;;;19.80;11.47;;;4.00;99.90;;;;;;7395218;19;20214;-75
2023/03/01 07:52:13;;;;;;;22.47;11.23;;;4.10;99.90;;;;;;7389624;19;20138;-75
2023/03/01 07:54:39;;;;;;;16.83;9.63;;;4.00;99.90;;;;;;7388346;19;20155;-75
2023/03/01 07:57:04;;;;;;;17.37;10.80;;;4.10;99.90;;;;;;7388054;19;20150;-75
2023/03/01 07:59:31;;;;;;;20.13;10.57;;;4.20;99.90;;;;;;7387129;19;20590;-76
2023/03/01 08:01:57;;;;;;;19.13;10.70;;;4.20;99.90;;;;;;7387119;19;20155;-75
2023/03/01 08:04:24;;;;;;;18.23;11.17;;;4.20;99.90;;;;;;7384630;19;20154;-75
2023/03/01 08:06:51;;;;;;;20.43;10.97;;;4.10;99.90;;;;;;7386649;19;20181;-75
2023/03/01 08:09:16;;;;;;;20.07;11.27;;;4.00;99.90;;;;;;7388504;19;20570;-76
2023/03/01 08:11:42;;;;;;;18.43;11.17;;;4.10;99.90;;;;;;7387756;19;20139;-75
2023/03/01 08:14:09;;;;;;;18.33;10.77;;;4.00;99.90;;;;;;7387037;19;20138;-75
2023/03/01 08:16:35;;;;;;;18.40;10.23;;;4.00;99.90;;;;;;7386197;19;20150;-75
2023/03/01 08:19:08;;;;;;;18.27;10.60;;;4.10;99.90;;;;;;7393569;19;20149;-75
2023/03/01 08:21:34;;;;;;;23.13;12.53;;;4.20;99.90;;;;;;7395612;19;20166;-75
2023/03/01 08:24:05;;;;;;;18.67;11.10;;;4.30;99.90;;;;;;7386673;19;20184;-76
2023/03/01 08:26:33;;;;;;;17.50;11.03;;;4.30;99.90;;;;;;7388246;19;20574;-74
2023/03/01 08:29:00;;;;;;;19.23;11.50;;;4.30;99.90;;;;;;7385990;19;20574;-75
2023/03/01 08:31:37;;;;;;;18.33;11.43;;;4.30;99.90;;;;;;7388255;19;20141;-76
2023/03/01 08:34:07;;;;;;;19.30;11.93;;;4.20;99.90;;;;;;7389763;19;20522;-76
2023/03/01 08:36:36;;;;;;;17.93;11.83;;;4.20;99.90;;;;;;7393777;19;20166;-75
2023/03/01 08:39:03;;;;;;;19.70;11.17;;;4.10;99.90;;;;;;7393959;19;20170;-75
2023/03/01 08:41:29;;;;;;;19.33;11.30;;;4.00;99.90;;;;;;7399702;19;20206;-76
2023/03/01 08:43:58;;;;;;;18.57;11.37;;;4.00;99.90;;;;;;7392776;19;20158;-75
2023/03/01 08:46:33;;;;;;;21.83;11.07;;;4.10;99.90;;;;;;7394518;19;20150;-74
2023/03/01 08:48:58;;;;;;;21.80;11.27;;;4.10;99.90;;;;;;7394109;19;20155;-75
2023/03/01 08:51:25;;;;;;;18.83;11.57;;;4.10;99.90;;;;;;7394129;19;20142;-76
2023/03/01 08:53:51;;;;;;;18.67;11.43;;;4.20;99.90;;;;;;7395323;19;20856;-76
2023/03/01 08:56:20;;;;;;;20.23;11.40;;;4.30;99.90;;;;;;7393019;19;20151;-75
2023/03/01 08:58:48;;;;;;;18.47;11.20;;;4.40;99.90;;;;;;7394293;19;20130;-75
2023/03/01 09:01:18;;;;;;;18.77;11.60;;;4.40;99.90;;;;;;7399314;19;20126;-73
2023/03/01 09:03:47;;;;;;;19.60;10.83;;;4.30;99.90;;;;;;7395915;19;20151;-75
2023/03/01 09:06:14;;;;;;;17.17;10.60;;;4.30;99.90;;;;;;7396059;19;20138;-74
2023/03/01 09:08:42;;;;;;;17.73;11.30;;;4.40;99.90;;;;;;7395057;19;20154;-75
2023/03/01 09:11:10;;;;;;;18.63;12.13;;;4.30;99.90;;;;;;7393351;19;20502;-77
2023/03/01 09:13:36;;;;;;;20.63;11.77;;;4.30;99.90;;;;;;7393872;19;20528;-75
2023/03/01 09:16:04;;;;;;;18.63;10.97;;;4.40;99.90;;;;;;7392923;19;20443;-75
2023/03/01 09:18:30;;;;;;;16.73;10.50;;;4.50;99.90;;;;;;7394623;19;20510;-74
2023/03/01 09:21:06;;;;;;;18.70;11.50;;;4.60;99.90;;;;;;7396797;19;20165;-75
2023/03/01 09:23:38;;;;;;;18.27;10.97;;;4.70;99.90;;;;;;7393103;19;20154;-75
2023/03/01 09:26:05;;;;;;;18.70;10.80;;;4.70;99.90;;;;;;7392845;19;20610;-77
2023/03/01 09:28:32;;;;;;;16.93;10.87;;;4.80;99.90;;;;;;7392603;19;20150;-76
2023/03/01 09:30:59;;;;;;;19.30;11.67;;;5.00;99.90;;;;;;7390549;19;20143;-75
2023/03/01 09:33:25;;;;;;;17.77;11.47;;;4.90;99.90;;;;;;7392768;19;20135;-76
2023/03/01 09:35:57;;;;;;;17.10;11.03;;;5.00;99.90;;;;;;7392150;19;20122;-76
2023/03/01 09:38:22;;;;;;;19.50;11.73;;;5.00;99.90;;;;;;7393838;19;20130;-75
2023/03/01 09:40:49;;;;;;;19.63;11.57;;;5.00;99.90;;;;;;7391091;19;20599;-75
2023/03/01 09:43:29;;;;;;;19.17;11.77;;;5.10;99.90;;;;;;7392372;19;20155;-75
2023/03/01 09:45:58;;;;;;;17.73;11.10;;;5.10;99.90;;;;;;7391467;19;20146;-75
2023/03/01 09:48:27;;;;;;;21.63;11.47;;;5.20;99.90;;;;;;7391577;19;20150;-75
2023/03/01 09:50:52;;;;;;;19.00;11.37;;;5.30;99.90;;;;;;7394129;19;20143;-76
2023/03/01 09:53:28;;;;;;;18.30;11.40;;;5.30;99.90;;;;;;7392493;19;20547;-74
2023/03/01 09:56:27;;;;;;;19.00;11.70;;;5.50;99.90;;;;;;7391496;19;20142;-75
2023/03/01 09:58:58;;;;;;;21.73;12.13;;;5.70;99.90;;;;;;7390604;19;20142;-76
2023/03/01 10:01:34;;;;;;;18.70;10.93;;;5.80;99.90;;;;;;7391754;19;20488;-74
2023/03/01 10:04:20;;;;;;;20.33;11.03;;;5.90;99.90;;;;;;7390483;19;20189;-75
2023/03/01 10:07:07;;;;;;;20.07;11.70;;;5.90;99.90;;;;;;7391663;19;20174;-76
2023/03/01 10:09:36;;;;;;;18.30;10.87;;;6.10;99.90;;;;;;7389968;19;20158;-75
2023/03/01 10:12:04;;;;;;;17.43;10.83;;;6.30;99.90;;;;;;7391415;19;20198;-76
2023/03/01 10:14:43;;;;;;;17.43;11.20;;;6.40;99.90;;;;;;7390678;19;20214;-76
2023/03/01 10:17:32;;;;;;;14.60;9.83;;;6.30;99.90;;;;;;7388988;19;20209;-75
2023/03/01 10:20:15;;;;;;;22.00;12.43;;;6.20;99.90;;;;;;7389920;19;20135;-76
2023/03/01 10:22:40;;;;;;;17.13;10.20;;;6.40;99.90;;;;;;7389110;19;20174;-74
2023/03/01 10:25:12;;;;;;;16.27;10.67;;;6.60;99.90;;;;;;7389834;19;20170;-76
2023/03/01 10:27:51;;;;;;;15.97;10.43;;;6.80;99.90;;;;;;7391598;19;20157;-76
2023/03/01 10:30:35;;;;;;;18.30;11.00;;;7.00;99.90;;;;;;7393584;19;20131;-75
2023/03/01 10:33:02;;;;;;;15.10;10.10;;;7.00;99.90;;;;;;7390194;19;20157;-77
2023/03/01 10:35:31;;;;;;;16.00;9.77;;;7.00;99.90;;;;;;7391641;19;20222;-75
2023/03/01 10:38:03;;;;;;;18.43;10.70;;;7.00;99.90;;;;;;7389368;19;20839;-76
2023/03/01 10:40:29;;;;;;;14.50;9.87;;;7.10;99.90;;;;;;7396261;19;20173;-75
2023/03/01 10:42:58;;;;;;;19.40;11.07;;;7.00;99.90;;;;;;7392232;19;20131;-75
2023/03/01 10:45:30;;;;;;;19.47;9.87;;;7.20;99.90;;;;;;7389649;19;20164;-75
2023/03/01 10:48:25;;;;;;;14.43;10.00;;;7.40;99.90;;;;;;7390068;19;20142;-77
2023/03/01 10:50:57;;;;;;;15.70;10.63;;;7.50;99.90;;;;;;7390573;19;20177;-76
2023/03/01 10:53:36;;;;;;;17.27;10.20;;;7.60;99.90;;;;;;7391292;19;20201;-76
2023/03/01 10:56:13;;;;;;;14.03;9.90;;;7.40;99.90;;;;;;7388433;19;20131;-75
2023/03/01 10:58:59;;;;;;;21.50;10.23;;;7.40;99.90;;;;;;7393101;19;20600;-76
2023/03/01 11:01:29;;;;;;;18.67;9.87;;;7.40;99.90;;;;;;7389350;19;20528;-76
2023/03/01 11:04:15;;;;;;;17.97;10.00;;;7.30;99.90;;;;;;7386818;19;20689;-76
2023/03/01 11:06:42;;;;;;;18.60;10.83;;;7.60;99.90;;;;;;7396081;19;20149;-74
2023/03/01 11:09:22;;;;;;;15.57;10.60;;;7.70;99.90;;;;;;7388013;19;20432;-76
2023/03/01 11:11:59;;;;;;;17.00;10.10;;;7.90;99.90;;;;;;7387120;19;20204;-76
2023/03/01 11:14:32;;;;;;;20.87;12.07;;;8.00;99.90;;;;;;7388305;19;20150;-76
2023/03/01 11:17:11;;;;;;;16.20;10.47;;;7.90;99.90;;;;;;7386486;19;20263;-76
2023/03/01 11:19:37;;;;;;;16.50;10.20;;;8.10;99.90;;;;;;7388593;19;20134;-76
2023/03/01 11:22:11;;;;;;;14.93;10.60;;;8.00;99.90;;;;;;7388125;19;20174;-76
2023/03/01 11:24:58;;;;;;;14.63;10.33;;;8.10;99.90;;;;;;7386144;19;20179;-74
2023/03/01 11:27:33;;;;;;;15.27;9.97;;;8.10;99.90;;;;;;7392646;19;20150;-77
2023/03/01 11:30:12;;;;;;;19.50;12.50;;;8.10;99.90;;;;;;7389555;19;20150;-76
2023/03/01 11:33:08;;;;;;;15.70;10.83;;;8.10;99.90;;;;;;7388919;19;20150;-77
2023/03/01 11:36:15;;;;;;;16.83;10.20;;;8.10;99.90;;;;;;7388224;19;20496;-75
2023/03/01 11:38:42;;;;;;;16.30;10.13;;;8.00;99.90;;;;;;7391188;19;20173;-74
2023/03/01 11:41:21;;;;;;;24.17;15.73;;;8.30;99.90;;;;;;7388694;19;20491;-77
2023/03/01 11:44:18;;;;;;;17.80;11.33;;;8.60;99.90;;;;;;7390082;19;20782;-74
2023/03/01 11:47:15;;;;;;;15.10;9.97;;;8.90;99.90;;;;;;7390825;19;20146;-77
2023/03/01 11:49:59;;;;;;;13.53;9.57;;;9.00;99.90;;;;;;7392585;19;20173;-77
2023/03/01 11:52:35;;;;;;;16.03;10.47;;;9.20;99.90;;;;;;7392254;19;20516;-75
2023/03/01 11:55:23;;;;;;;14.33;9.57;;;9.30;99.90;;;;;;7392123;19;20161;-77
2023/03/01 11:58:46;;;;;;;14.47;10.17;;;9.20;99.90;;;;;;7387435;19;20131;-76
2023/03/01 12:01:11;;;;;;;17.10;10.67;;;9.30;99.90;;;;;;7396097;19;20153;-76
2023/03/01 12:04:02;;;;;;;14.33;9.83;;;9.30;99.90;;;;;;7385200;19;20154;-77
2023/03/01 12:07:09;;;;;;;15.47;10.53;;;9.20;99.90;;;;;;7389832;19;20154;-75
2023/03/01 12:10:13;;;;;;;13.17;9.30;;;9.30;99.90;;;;;;7388747;19;20799;-75
2023/03/01 12:13:07;;;;;;;13.93;9.30;;;9.40;99.90;;;;;;7384553;19;20479;-77
2023/03/01 12:16:03;;;;;;;14.87;9.73;;;9.60;99.90;;;;;;7386484;19;20138;-77
2023/03/01 12:18:44;;;;;;;14.03;9.33;;;9.70;99.90;;;;;;7386767;19;20147;-76
2023/03/01 12:21:18;;;;;;;14.00;9.77;;;9.50;99.90;;;;;;7387375;19;20154;-76
2023/03/01 12:24:04;;;;;;;13.30;8.87;;;9.40;99.90;;;;;;7389726;19;20131;-75
2023/03/01 12:26:58;;;;;;;16.83;9.90;;;9.50;99.90;;;;;;7388474;19;20185;-76
2023/03/01 12:29:33;;;;;;;12.20;8.47;;;9.80;99.90;;;;;;7385878;19;20141;-77
2023/03/01 12:32:31;;;;;;;14.23;9.37;;;9.80;99.90;;;;;;7386612;19;20206;-77
2023/03/01 12:35:12;;;;;;;14.40;9.40;;;9.50;99.90;;;;;;7385747;19;20627;-76
2023/03/01 12:37:40;;;;;;;21.03;13.23;;;9.50;99.90;;;;;;7386473;19;20138;-76
2023/03/01 12:40:41;;;;;;;15.27;9.57;;;9.60;99.90;;;;;;7386456;19;20165;-75
2023/03/01 12:43:31;;;;;;;14.30;8.70;;;9.80;99.90;;;;;;7385748;19;20174;-76
2023/03/01 12:46:26;;;;;;;12.30;9.00;;;9.90;99.70;;;;;;7386564;19;20147;-76
2023/03/01 12:49:09;;;;;;;14.20;9.80;;;9.60;99.80;;;;;;7384241;19;20146;-75
2023/03/01 12:51:37;;;;;;;14.67;8.47;;;9.60;99.90;;;;;;7386699;19;20497;-76
2023/03/01 12:54:15;;;;;;;11.63;8.27;;;9.70;99.90;;;;;;7385041;19;20155;-76
2023/03/01 12:56:42;;;;;;;12.37;8.40;;;9.70;99.90;;;;;;7387674;19;20153;-74
2023/03/01 12:59:44;;;;;;;12.33;8.50;;;9.80;99.90;;;;;;7383107;19;20154;-76
2023/03/01 13:02:26;;;;;;;15.23;8.60;;;9.90;99.60;;;;;;7386283;19;20141;-76
2023/03/01 13:05:24;;;;;;;12.80;9.17;;;9.70;99.60;;;;;;7383939;19;20198;-78
2023/03/01 13:07:54;;;;;;;11.67;7.80;;;9.60;99.90;;;;;;7382445;19;20591;-74